Edina, MN (55435)

14:17 CDT le 23 août 2014 (GMT -0500)
Lake Edina Park | Change Station
CLOSE
Current Station
Stations météorologiques personnelles
Location: Edina, MN
Altitude: 835 ft
Stations météo à proximité

Alt. 835 ft 44.87 °N, 93.34 °W | Updated 16 seconds ago

Overcast
Couvert
73.9 ° F
Paraît 73 ° F
N
0.0
Vent Variable Vent de Nord
Gusts 4.0 mph

Aujourd'hui
Haut(e) -- | Bas -- ° F
--% Risque de précip.
Hier
Haut(e) -- | Bas -- ° F
Precip. -- pouce
6:24 AM 8:06 PM
Lune descendante, 3% visible
Pression 29.95 pouce
Visibilité 9.0 Miles terrestres
Nuages Couvert 900 ft
indice de chaleur 73 ° F
Point de rosée 70 ° F
Humidité 88%
Précipitations 0.00 pouce
Profondeur de la couche neigeuse Non disponible.
UV 3 sur 12
Pollen 5.00 sur 12
Ozone Bon
PM2.5 Bon
Flu Activity Non disponible.
METAR KMSP 231853Z 06008KT 9SM OVC009 23/21 A2996 RMK AO2 SLP140 T02280206

More Conditions Fewer Conditions

Pression 29.95 pouce
Visibilité 9.0 Miles terrestres
Nuages Couvert 900 ft
indice de chaleur 73 ° F
Point de rosée 70 ° F
Humidité 88%
Précipitations 0.00 pouce
Profondeur de la couche neigeuse Non disponible.
UV 3 sur 12
Pollen 5.00 sur 12
Ozone Bon
PM2.5 Bon
Flu Activity Non disponible.
METAR KMSP 231853Z 06008KT 9SM OVC009 23/21 A2996 RMK AO2 SLP140 T02280206

More Conditions Fewer Conditions

10-Day Weather Forecast

Almanac

Astronomie

Aug. 23, 2014 Lever Coucher
Temps réel 06:24 CDT 20:06 CDT
Crépuscule civil 05:53 CDT 20:37 CDT
Crépuscule nautique 05:16 CDT 21:14 CDT
Crépuscule astronomique 04:35 CDT 21:55 CDT
Lune 04:40 CDT 18:51 CDT
Durée de lumière visible 14h 43m
Longueur du jour
13h 41m
Tomorrow will be 2m 55s shorter.
Lune descendante, 3% of the Moon is Illuminated
Aujourd'hui
Lune descendante
août 25
Nouveau
Sep 2
Premier quartier
Sep 8
Pleine lune
Sep 15
Dernier quartier

Extrêmes aujourd'hui

State Highs State Lows

Community

WunderPhotos

Upload Photos

1,746,585 Photos téléchargées !

WunderBlogs® & News

Nearby

Qualité de l'air

  Qualité de l'air Indice de la qualité de l'air Polluant
Hier Bon
OZONE
Hier Bon
PM2.5
Actuel Bon
PM2.5
Actuel Bon
OZONE
samedi Bon
OZONE
samedi Bon
PM2.5
dimanche Bon
OZONE
dimanche Bon
PM2.5
lundi Bon
OZONE
lundi Bon
PM2.5
mardi Bon
OZONE
mardi Bon
PM2.5
mercredi Bon
OZONE
mercredi Bon
PM2.5
jeudi Bon
OZONE
jeudi Bon
PM2.5

Épaisseur de neige

Station Depth Altitude
Pas de nouvelles chutes de neige

Activité sismique

Ville Distance Mag. Time & Date
No recent earthquake activity has been reported nearby.
Minimum magnitude displayed is 2.5.

Températures des eaux côtières

Lieu Température
Aucun rapport de station

Stations météo à proximité